CFE8756 EGLC-EGAC
Flight info
| Callsign | CFE8756 |
|---|---|
| Flight time | 0h 51m |
| Altitude | 30000 |
| Route | BPK UN601 LESTA UP6 RODOL UM65 TENSO L603 BELOX DCT REMSI DCT NINEB M148 MAGEE |
| Aircraft | RJ1H/M-SDFGIRWY/LB1 |
Departure
| Time | 2026-04-30 18:14 |
|---|---|
| Airport | London City Airport (EGLC) |
Arrival
| Time | 2026-04-30 19:06 |
|---|---|
| Airport | George Best Belfast City Airport (EGAC) |
| Time | Latitude | Longitude | Altitude | Speed | Heading |
|---|---|---|---|---|---|
| 2026-04-30 17:59 | 51.50407 | 0.05135 | 28 ft | 0 kts | 330° |
| 2026-04-30 18:11 | 51.50422 | 0.05127 | 27 ft | 5 kts | 346° |
| 2026-04-30 18:11 | 51.50465 | 0.04865 | 25 ft | 14 kts | 274° |
| 2026-04-30 18:12 | 51.50541 | 0.04443 | 25 ft | 12 kts | 23° |
| 2026-04-30 18:13 | 51.50554 | 0.04535 | 25 ft | 27 kts | 92° |
| 2026-04-30 18:13 | 51.50490 | 0.07452 | 461 ft | 132 kts | 92° |
| 2026-04-30 18:14 | 51.51063 | 0.10696 | 1908 ft | 147 kts | 42° |
| 2026-04-30 18:15 | 51.54546 | 0.09355 | 2752 ft | 214 kts | 332° |
| 2026-04-30 18:15 | 51.58865 | 0.05871 | 3056 ft | 258 kts | 329° |
| 2026-04-30 18:16 | 51.62101 | 0.02467 | 3095 ft | 287 kts | 327° |
| 2026-04-30 18:16 | 51.65419 | -0.01067 | 3133 ft | 287 kts | 327° |
| 2026-04-30 18:17 | 51.67084 | -0.02797 | 3704 ft | 285 kts | 327° |
| 2026-04-30 18:17 | 51.68773 | -0.04510 | 4170 ft | 288 kts | 328° |
| 2026-04-30 18:17 | 51.72184 | -0.07915 | 5166 ft | 289 kts | 327° |
| 2026-04-30 18:18 | 51.73900 | -0.09624 | 5613 ft | 291 kts | 327° |
| 2026-04-30 18:18 | 51.75619 | -0.11354 | 6048 ft | 292 kts | 328° |
| 2026-04-30 18:18 | 51.77361 | -0.13051 | 6457 ft | 293 kts | 329° |
| 2026-04-30 18:18 | 51.78867 | -0.14491 | 6795 ft | 296 kts | 329° |
| 2026-04-30 18:19 | 51.80647 | -0.16169 | 7256 ft | 298 kts | 330° |
| 2026-04-30 18:19 | 51.82452 | -0.17865 | 7633 ft | 302 kts | 329° |
| 2026-04-30 18:19 | 51.84269 | -0.19593 | 8161 ft | 304 kts | 329° |
| 2026-04-30 18:19 | 51.86097 | -0.21337 | 8699 ft | 306 kts | 329° |
| 2026-04-30 18:20 | 51.87935 | -0.23095 | 9259 ft | 308 kts | 329° |
| 2026-04-30 18:20 | 51.89792 | -0.24873 | 9824 ft | 311 kts | 329° |
| 2026-04-30 18:20 | 51.91665 | -0.26666 | 10365 ft | 315 kts | 329° |
| 2026-04-30 18:20 | 51.93595 | -0.28519 | 10574 ft | 330 kts | 329° |
| 2026-04-30 18:21 | 51.95615 | -0.30460 | 10702 ft | 344 kts | 329° |
| 2026-04-30 18:21 | 51.97702 | -0.32474 | 10950 ft | 352 kts | 329° |
| 2026-04-30 18:21 | 51.99810 | -0.34510 | 11313 ft | 354 kts | 329° |
| 2026-04-30 18:21 | 52.01940 | -0.36548 | 11676 ft | 356 kts | 329° |
| 2026-04-30 18:22 | 52.04085 | -0.38576 | 12039 ft | 358 kts | 329° |
| 2026-04-30 18:22 | 52.08395 | -0.42752 | 12765 ft | 363 kts | 329° |
| 2026-04-30 18:22 | 52.10570 | -0.44869 | 13157 ft | 365 kts | 329° |
| 2026-04-30 18:23 | 52.12764 | -0.46964 | 13543 ft | 367 kts | 329° |
| 2026-04-30 18:23 | 52.14969 | -0.49075 | 13922 ft | 369 kts | 329° |
| 2026-04-30 18:23 | 52.17146 | -0.51203 | 14258 ft | 370 kts | 329° |
| 2026-04-30 18:23 | 52.19389 | -0.53393 | 14596 ft | 372 kts | 329° |
| 2026-04-30 18:24 | 52.23822 | -0.57685 | 15264 ft | 374 kts | 329° |
| 2026-04-30 18:24 | 52.26055 | -0.59883 | 15588 ft | 376 kts | 329° |
| 2026-04-30 18:24 | 52.28296 | -0.62087 | 15901 ft | 377 kts | 329° |
| 2026-04-30 18:25 | 52.30554 | -0.64279 | 16242 ft | 378 kts | 329° |
| 2026-04-30 18:25 | 52.35078 | -0.68711 | 16871 ft | 381 kts | 328° |
| 2026-04-30 18:25 | 52.37354 | -0.70945 | 17177 ft | 382 kts | 328° |
| 2026-04-30 18:26 | 52.41936 | -0.75432 | 17789 ft | 385 kts | 328° |
| 2026-04-30 18:26 | 52.44240 | -0.77687 | 18086 ft | 387 kts | 328° |
| 2026-04-30 18:26 | 52.46555 | -0.79952 | 18402 ft | 388 kts | 328° |
| 2026-04-30 18:27 | 52.51209 | -0.84502 | 18918 ft | 391 kts | 328° |
| 2026-04-30 18:27 | 52.53552 | -0.86802 | 19156 ft | 393 kts | 328° |
| 2026-04-30 18:28 | 52.58243 | -0.91493 | 19650 ft | 396 kts | 328° |
| 2026-04-30 18:28 | 52.60613 | -0.93831 | 19849 ft | 398 kts | 328° |
| 2026-04-30 18:28 | 52.65388 | -0.98551 | 20302 ft | 402 kts | 328° |
| 2026-04-30 18:29 | 52.67778 | -1.00963 | 20496 ft | 405 kts | 328° |
| 2026-04-30 18:29 | 52.74915 | -1.08637 | 21209 ft | 410 kts | 319° |
| 2026-04-30 18:30 | 52.78460 | -1.13840 | 21627 ft | 411 kts | 315° |
| 2026-04-30 18:30 | 52.83286 | -1.21562 | 22138 ft | 415 kts | 314° |
| 2026-04-30 18:31 | 52.85353 | -1.24895 | 22357 ft | 416 kts | 314° |
| 2026-04-30 18:31 | 52.89518 | -1.31522 | 22787 ft | 419 kts | 314° |
| 2026-04-30 18:32 | 52.93752 | -1.38246 | 23222 ft | 423 kts | 314° |
| 2026-04-30 18:32 | 52.95878 | -1.41622 | 23435 ft | 424 kts | 314° |
| 2026-04-30 18:32 | 53.00154 | -1.48421 | 23834 ft | 427 kts | 314° |
| 2026-04-30 18:33 | 53.02299 | -1.51832 | 24053 ft | 427 kts | 314° |
| 2026-04-30 18:33 | 53.06643 | -1.58700 | 24351 ft | 432 kts | 314° |
| 2026-04-30 18:33 | 53.08827 | -1.62142 | 24554 ft | 433 kts | 314° |
| 2026-04-30 18:34 | 53.11000 | -1.65620 | 24729 ft | 434 kts | 313° |
| 2026-04-30 18:34 | 53.15350 | -1.72656 | 25068 ft | 436 kts | 314° |
| 2026-04-30 18:34 | 53.17544 | -1.76152 | 25291 ft | 436 kts | 314° |
| 2026-04-30 18:35 | 53.19732 | -1.79658 | 25508 ft | 436 kts | 313° |
| 2026-04-30 18:35 | 53.21912 | -1.83163 | 25731 ft | 435 kts | 315° |
| 2026-04-30 18:35 | 53.24240 | -1.86404 | 25932 ft | 437 kts | 322° |
| 2026-04-30 18:36 | 53.29390 | -1.91817 | 26348 ft | 438 kts | 329° |
| 2026-04-30 18:36 | 53.32059 | -1.94277 | 26564 ft | 438 kts | 330° |
| 2026-04-30 18:36 | 53.37396 | -1.99161 | 26979 ft | 437 kts | 330° |
| 2026-04-30 18:37 | 53.40052 | -2.01644 | 27197 ft | 436 kts | 329° |
| 2026-04-30 18:37 | 53.42692 | -2.04149 | 27393 ft | 436 kts | 329° |
| 2026-04-30 18:37 | 53.45327 | -2.06661 | 27602 ft | 436 kts | 329° |
| 2026-04-30 18:37 | 53.47973 | -2.09180 | 27746 ft | 437 kts | 329° |
| 2026-04-30 18:38 | 53.50618 | -2.11695 | 27950 ft | 437 kts | 329° |
| 2026-04-30 18:38 | 53.53256 | -2.14219 | 28160 ft | 436 kts | 328° |
| 2026-04-30 18:38 | 53.55878 | -2.16786 | 28359 ft | 436 kts | 327° |
| 2026-04-30 18:38 | 53.58195 | -2.19989 | 28506 ft | 429 kts | 306° |
| 2026-04-30 18:39 | 53.59981 | -2.23988 | 28679 ft | 427 kts | 301° |
| 2026-04-30 18:39 | 53.61567 | -2.28111 | 28855 ft | 423 kts | 295° |
| 2026-04-30 18:39 | 53.62887 | -2.32592 | 29031 ft | 420 kts | 289° |
| 2026-04-30 18:39 | 53.63987 | -2.37125 | 29217 ft | 418 kts | 286° |
| 2026-04-30 18:40 | 53.64998 | -2.41712 | 29402 ft | 417 kts | 285° |
| 2026-04-30 18:40 | 53.65987 | -2.46302 | 29589 ft | 416 kts | 285° |
| 2026-04-30 18:40 | 53.66980 | -2.50886 | 29762 ft | 416 kts | 285° |
| 2026-04-30 18:40 | 53.67990 | -2.55458 | 29946 ft | 416 kts | 285° |
| 2026-04-30 18:41 | 53.68990 | -2.59964 | 30104 ft | 415 kts | 285° |
| 2026-04-30 18:41 | 53.71047 | -2.69132 | 30173 ft | 421 kts | 286° |
| 2026-04-30 18:42 | 53.73160 | -2.78401 | 30169 ft | 425 kts | 286° |
| 2026-04-30 18:42 | 53.76310 | -2.92419 | 30163 ft | 425 kts | 285° |
| 2026-04-30 18:45 | 53.87263 | -3.42112 | 30154 ft | 421 kts | 285° |
| 2026-04-30 18:46 | 53.89285 | -3.51443 | 30152 ft | 422 kts | 286° |
| 2026-04-30 18:46 | 53.91312 | -3.60798 | 30145 ft | 423 kts | 285° |
| 2026-04-30 18:47 | 53.93318 | -3.70169 | 30160 ft | 422 kts | 287° |
| 2026-04-30 18:47 | 53.95332 | -3.79488 | 30142 ft | 420 kts | 288° |
| 2026-04-30 18:48 | 53.97864 | -3.88469 | 30144 ft | 423 kts | 296° |
| 2026-04-30 18:48 | 54.00826 | -3.97123 | 30144 ft | 424 kts | 298° |
| 2026-04-30 18:49 | 54.03802 | -4.05715 | 30141 ft | 425 kts | 297° |
| 2026-04-30 18:49 | 54.06849 | -4.14414 | 30134 ft | 426 kts | 300° |
| 2026-04-30 18:50 | 54.10183 | -4.22684 | 30155 ft | 427 kts | 303° |
| 2026-04-30 18:50 | 54.13626 | -4.30934 | 30138 ft | 427 kts | 303° |
| 2026-04-30 18:51 | 54.17073 | -4.39184 | 30133 ft | 427 kts | 303° |
| 2026-04-30 18:51 | 54.20518 | -4.47468 | 30137 ft | 428 kts | 302° |
| 2026-04-30 18:52 | 54.23915 | -4.55831 | 30133 ft | 428 kts | 302° |
| 2026-04-30 18:52 | 54.25618 | -4.59985 | 29466 ft | 428 kts | 302° |
| 2026-04-30 18:52 | 54.27318 | -4.64152 | 28788 ft | 426 kts | 302° |
| 2026-04-30 18:52 | 54.29005 | -4.68288 | 28139 ft | 423 kts | 302° |
| 2026-04-30 18:53 | 54.30692 | -4.72411 | 27313 ft | 425 kts | 302° |
| 2026-04-30 18:53 | 54.32396 | -4.76573 | 26461 ft | 429 kts | 301° |
| 2026-04-30 18:53 | 54.34101 | -4.80792 | 25642 ft | 432 kts | 301° |
| 2026-04-30 18:53 | 54.35816 | -4.85046 | 24851 ft | 434 kts | 301° |
| 2026-04-30 18:54 | 54.37541 | -4.89315 | 24017 ft | 437 kts | 301° |
| 2026-04-30 18:54 | 54.39285 | -4.93616 | 23110 ft | 440 kts | 301° |
| 2026-04-30 18:54 | 54.41025 | -4.97905 | 22457 ft | 434 kts | 300° |
| 2026-04-30 18:54 | 54.42714 | -5.02141 | 22016 ft | 424 kts | 300° |
| 2026-04-30 18:55 | 54.44366 | -5.06266 | 21607 ft | 415 kts | 300° |
| 2026-04-30 18:55 | 54.47648 | -5.14319 | 20375 ft | 413 kts | 301° |
| 2026-04-30 18:55 | 54.49278 | -5.18259 | 19605 ft | 396 kts | 302° |
| 2026-04-30 18:56 | 54.52811 | -5.24816 | 18031 ft | 370 kts | 315° |
| 2026-04-30 18:56 | 54.54768 | -5.27694 | 17191 ft | 370 kts | 317° |
| 2026-04-30 18:56 | 54.56772 | -5.30442 | 16359 ft | 366 kts | 319° |
| 2026-04-30 18:57 | 54.60760 | -5.35752 | 14678 ft | 355 kts | 319° |
| 2026-04-30 18:57 | 54.62692 | -5.38310 | 13707 ft | 342 kts | 319° |
| 2026-04-30 18:57 | 54.64510 | -5.40748 | 12668 ft | 321 kts | 319° |
| 2026-04-30 18:58 | 54.67871 | -5.45333 | 10658 ft | 296 kts | 319° |
| 2026-04-30 18:58 | 54.69455 | -5.47533 | 9648 ft | 288 kts | 319° |
| 2026-04-30 18:58 | 54.71000 | -5.49664 | 8598 ft | 280 kts | 320° |
| 2026-04-30 18:59 | 54.73968 | -5.53761 | 6613 ft | 268 kts | 320° |
| 2026-04-30 19:00 | 54.77783 | -5.60053 | 3812 ft | 239 kts | 282° |
| 2026-04-30 19:00 | 54.77982 | -5.62818 | 3031 ft | 227 kts | 263° |
| 2026-04-30 19:00 | 54.77147 | -5.67558 | 2113 ft | 177 kts | 230° |
| 2026-04-30 19:01 | 54.75707 | -5.70369 | 2015 ft | 150 kts | 212° |
| 2026-04-30 19:01 | 54.74888 | -5.71534 | 1986 ft | 152 kts | 209° |
| 2026-04-30 19:02 | 54.73173 | -5.73667 | 1993 ft | 152 kts | 205° |
| 2026-04-30 19:02 | 54.71432 | -5.75711 | 1993 ft | 151 kts | 205° |
| 2026-04-30 19:03 | 54.69691 | -5.77783 | 1757 ft | 155 kts | 206° |
| 2026-04-30 19:03 | 54.67914 | -5.79920 | 1348 ft | 156 kts | 208° |
| 2026-04-30 19:04 | 54.66155 | -5.82039 | 901 ft | 140 kts | 205° |
| 2026-04-30 19:04 | 54.64731 | -5.83781 | 563 ft | 121 kts | 212° |
| 2026-04-30 19:05 | 54.63326 | -5.85442 | 281 ft | 127 kts | 211° |
| 2026-04-30 19:05 | 54.61881 | -5.87164 | 27 ft | 114 kts | 214° |
| 2026-04-30 19:06 | 54.61209 | -5.87966 | 22 ft | 24 kts | 216° |
| 2026-04-30 19:06 | 54.61122 | -5.87995 | 23 ft | 8 kts | 134° |
| 2026-04-30 19:06 | 54.61083 | -5.87865 | 24 ft | 4 kts | 90° |
| 2026-04-30 19:07 | 54.61167 | -5.87704 | 23 ft | 14 kts | 35° |
| 2026-04-30 19:07 | 54.61253 | -5.87600 | 23 ft | 16 kts | 35° |
| 2026-04-30 19:08 | 54.61415 | -5.87373 | 23 ft | 15 kts | 53° |
| 2026-04-30 19:08 | 54.61540 | -5.87185 | 23 ft | 4 kts | 101° |
| 2026-04-30 19:08 | 54.61534 | -5.87173 | 23 ft | 0 kts | 148° |
| 2026-04-30 19:09 | 54.61519 | -5.87199 | 23 ft | 6 kts | 250° |
| 2026-04-30 19:09 | 54.61481 | -5.87280 | 23 ft | 11 kts | 200° |
| 2026-04-30 19:09 | 54.61442 | -5.87238 | 23 ft | 5 kts | 125° |
| 2026-04-30 19:10 | 54.61435 | -5.87221 | 23 ft | 0 kts | 125° |